createdAt,value
2022-08-12T00:02:45.090Z,17.48
2022-08-12T00:05:32.009Z,17.28
2022-08-12T00:08:17.181Z,17.16
2022-08-12T00:11:14.092Z,17.03
2022-08-12T00:13:59.369Z,17.00
2022-08-12T00:16:48.747Z,16.99
2022-08-12T00:19:34.454Z,17.01
2022-08-12T00:22:19.976Z,16.98
2022-08-12T00:25:05.731Z,16.86
2022-08-12T00:27:51.557Z,16.82
2022-08-12T00:30:36.860Z,16.77
2022-08-12T00:33:25.636Z,16.66
2022-08-12T00:36:35.356Z,16.63
2022-08-12T00:39:21.927Z,16.56
2022-08-12T00:42:08.787Z,16.52
2022-08-12T00:44:35.527Z,16.57
2022-08-12T00:47:03.469Z,16.60
2022-08-12T00:49:31.282Z,16.53
2022-08-12T00:52:06.822Z,16.62
2022-08-12T00:54:44.394Z,16.52
2022-08-12T00:57:17.365Z,16.49
2022-08-12T00:59:50.005Z,16.46
2022-08-12T01:02:23.668Z,16.34
2022-08-12T01:05:29.217Z,16.34
2022-08-12T01:08:15.020Z,16.37
2022-08-12T01:11:02.190Z,16.32
2022-08-12T01:13:31.299Z,16.26
2022-08-12T01:16:01.210Z,16.29
2022-08-12T01:18:30.167Z,16.27
2022-08-12T01:21:09.217Z,16.26
2022-08-12T01:23:45.015Z,16.26
2022-08-12T01:26:17.156Z,16.22
2022-08-12T01:28:45.731Z,16.43
2022-08-12T01:31:16.254Z,16.53
2022-08-12T01:34:28.642Z,16.56
2022-08-12T01:37:02.091Z,16.41
2022-08-12T01:40:34.204Z,16.65
2022-08-12T01:42:39.843Z,16.63
2022-08-12T01:45:07.153Z,16.48
2022-08-12T01:47:58.710Z,16.43
2022-08-12T01:50:33.242Z,16.23
2022-08-12T01:53:06.442Z,16.13
2022-08-12T01:55:35.354Z,16.11
2022-08-12T01:58:54.348Z,16.06
2022-08-12T02:01:24.541Z,15.97
2022-08-12T02:04:33.434Z,15.95
2022-08-12T02:07:23.027Z,15.91
2022-08-12T02:10:11.185Z,16.06
2022-08-12T02:13:48.355Z,16.07
2022-08-12T02:16:51.159Z,16.02
2022-08-12T02:19:22.255Z,15.95
2022-08-12T02:22:25.117Z,15.81
2022-08-12T02:24:54.188Z,15.67
2022-08-12T02:27:22.108Z,15.67
2022-08-12T02:29:49.310Z,15.70
2022-08-12T02:32:16.797Z,15.66
2022-08-12T02:34:44.803Z,15.57
2022-08-12T02:37:15.540Z,15.51
2022-08-12T02:39:48.458Z,15.44
2022-08-12T02:42:16.470Z,15.47
2022-08-12T02:44:45.837Z,15.58
2022-08-12T02:47:58.468Z,15.59
2022-08-12T02:50:05.778Z,15.49
2022-08-12T02:52:34.115Z,15.59
2022-08-12T02:55:10.635Z,15.68
2022-08-12T02:57:37.456Z,15.59
2022-08-12T03:00:06.107Z,15.51
2022-08-12T03:02:33.615Z,15.43
2022-08-12T03:05:03.437Z,15.32
2022-08-12T03:07:56.187Z,15.22
2022-08-12T03:10:36.650Z,15.27
2022-08-12T03:13:04.630Z,15.36
2022-08-12T03:15:31.541Z,15.24
2022-08-12T03:18:24.891Z,15.14
2022-08-12T03:20:56.274Z,15.10
2022-08-12T03:23:30.114Z,15.09
2022-08-12T03:26:00.666Z,15.22
2022-08-12T03:28:49.650Z,15.16
2022-08-12T03:31:22.253Z,15.14
2022-08-12T03:34:02.020Z,15.08
2022-08-12T03:36:32.121Z,15.10
2022-08-12T03:39:18.884Z,15.11
2022-08-12T03:41:54.886Z,15.12
2022-08-12T03:44:46.566Z,15.11
2022-08-12T03:47:49.670Z,15.08
2022-08-12T03:50:35.954Z,15.06
2022-08-12T03:53:24.280Z,15.09
2022-08-12T03:56:10.181Z,15.12
2022-08-12T03:58:56.145Z,15.33
2022-08-12T04:01:25.996Z,15.30
2022-08-12T04:03:52.960Z,15.34
2022-08-12T04:06:34.414Z,15.29
2022-08-12T04:09:15.941Z,15.33
2022-08-12T04:12:03.144Z,15.35
2022-08-12T04:14:30.168Z,15.32
2022-08-12T04:16:57.402Z,15.26
2022-08-12T04:19:26.077Z,15.23
2022-08-12T04:22:02.429Z,15.22
2022-08-12T04:24:38.056Z,15.30
2022-08-12T04:27:11.780Z,15.41
2022-08-12T04:30:29.148Z,15.54
2022-08-12T04:32:26.329Z,15.77
2022-08-12T04:34:53.947Z,16.07
2022-08-12T04:37:20.755Z,16.29
2022-08-12T04:39:48.584Z,16.57
2022-08-12T04:42:16.146Z,17.08
2022-08-12T04:44:43.330Z,17.89
2022-08-12T04:47:15.303Z,18.59
2022-08-12T04:49:45.589Z,19.23
2022-08-12T04:52:12.821Z,19.87
2022-08-12T04:54:39.697Z,20.29
2022-08-12T04:57:09.560Z,20.22
2022-08-12T04:59:48.467Z,20.62
2022-08-12T05:02:22.864Z,21.13
2022-08-12T05:04:51.662Z,21.54
2022-08-12T05:07:19.432Z,21.95
2022-08-12T05:10:00.523Z,21.88
2022-08-12T05:12:37.504Z,21.84
2022-08-12T05:15:21.243Z,21.60
2022-08-12T05:17:53.215Z,21.45
2022-08-12T05:20:20.735Z,21.53
2022-08-12T05:22:47.494Z,21.72
2022-08-12T05:25:15.868Z,22.45
2022-08-12T05:27:58.762Z,22.77
2022-08-12T05:30:30.882Z,23.06
2022-08-12T05:33:00.264Z,23.21
2022-08-12T05:35:28.011Z,23.40
2022-08-12T05:38:14.770Z,23.57
2022-08-12T05:40:41.952Z,23.73
2022-08-12T05:43:08.909Z,24.10
2022-08-12T05:45:35.643Z,24.11
2022-08-12T05:48:02.779Z,24.24
2022-08-12T05:50:29.586Z,24.38
2022-08-12T05:52:56.301Z,24.29
2022-08-12T05:55:25.843Z,24.67
2022-08-12T05:57:55.406Z,24.42
2022-08-12T06:00:26.189Z,24.52
2022-08-12T06:03:12.019Z,24.49
2022-08-12T06:05:52.695Z,24.86
2022-08-12T06:08:23.097Z,24.83
2022-08-12T06:10:50.387Z,24.53
2022-08-12T06:13:28.713Z,24.72
2022-08-12T06:16:09.858Z,25.18
2022-08-12T06:18:39.967Z,24.96
2022-08-12T06:21:12.081Z,24.81
2022-08-12T06:23:42.638Z,25.00
2022-08-12T06:26:12.696Z,25.23
2022-08-12T06:28:40.049Z,25.40
2022-08-12T06:31:25.375Z,25.41
2022-08-12T06:33:57.825Z,25.40
2022-08-12T06:36:29.964Z,26.05
2022-08-12T06:39:00.308Z,26.63
2022-08-12T06:42:31.054Z,26.37
2022-08-12T06:44:32.737Z,26.43
2022-08-12T06:46:59.801Z,26.68
2022-08-12T06:49:36.685Z,26.56
2022-08-12T06:52:04.872Z,26.19
2022-08-12T06:54:33.222Z,25.79
2022-08-12T06:57:57.110Z,26.03
2022-08-12T06:59:47.451Z,25.78
2022-08-12T07:02:14.135Z,25.82
2022-08-12T07:04:40.870Z,25.43
2022-08-12T07:07:08.925Z,25.42
2022-08-12T07:10:01.194Z,25.36
2022-08-12T07:12:23.469Z,25.36
2022-08-12T07:14:53.818Z,25.47
2022-08-12T07:17:20.445Z,25.51
2022-08-12T07:20:35.974Z,25.34
2022-08-12T07:36:12.953Z,26.42
2022-08-12T07:38:46.531Z,26.45
2022-08-12T07:41:39.082Z,26.24
2022-08-12T07:44:08.685Z,26.29
2022-08-12T07:46:49.542Z,26.27
2022-08-12T07:49:34.684Z,26.61
2022-08-12T07:52:21.350Z,26.72
2022-08-12T07:54:51.304Z,26.75
2022-08-12T07:57:18.061Z,26.97
2022-08-12T07:59:44.737Z,26.66
2022-08-12T08:02:26.355Z,26.71
2022-08-12T08:04:56.557Z,26.74
2022-08-12T08:07:25.672Z,26.60
2022-08-12T08:09:59.898Z,26.42
2022-08-12T08:12:46.355Z,26.75
2022-08-12T08:15:14.983Z,26.85
2022-08-12T08:18:05.974Z,26.65
2022-08-12T08:20:35.336Z,26.74
2022-08-12T08:23:08.137Z,27.07
2022-08-12T08:25:38.862Z,26.76
2022-08-12T08:28:27.410Z,26.70
2022-08-12T08:31:05.423Z,26.70
2022-08-12T08:34:09.140Z,26.53
2022-08-12T08:36:23.779Z,26.95
2022-08-12T08:38:57.860Z,26.80
2022-08-12T08:45:24.430Z,27.19
2022-08-12T08:47:51.919Z,27.27
2022-08-12T08:50:18.758Z,27.62
2022-08-12T08:52:46.000Z,27.33
2022-08-12T08:55:14.459Z,27.54
2022-08-12T08:57:47.658Z,27.38
2022-08-12T09:00:16.904Z,27.43
2022-08-12T09:02:49.128Z,27.53
2022-08-12T09:05:26.018Z,27.33
2022-08-12T09:10:47.286Z,27.30
2022-08-12T09:13:29.108Z,27.29
2022-08-12T09:16:20.407Z,27.45
2022-08-12T09:18:57.371Z,27.49
2022-08-12T09:21:24.970Z,27.40
2022-08-12T09:24:06.099Z,27.28
2022-08-12T09:30:10.418Z,27.28
2022-08-12T09:32:56.736Z,27.46
2022-08-12T09:35:42.977Z,27.31
2022-08-12T09:38:28.970Z,27.38
2022-08-12T09:42:33.688Z,27.38
2022-08-12T09:44:39.454Z,27.70
2022-08-12T09:47:10.531Z,27.27
2022-08-12T09:49:57.948Z,27.62
2022-08-12T09:52:32.014Z,27.52
2022-08-12T09:55:02.455Z,27.56
2022-08-12T09:58:07.441Z,27.18
2022-08-12T10:01:02.864Z,27.22
2022-08-12T10:04:12.124Z,27.41
2022-08-12T10:06:57.975Z,27.47
2022-08-12T10:09:57.061Z,27.67
2022-08-12T10:13:11.673Z,27.74
2022-08-12T10:16:02.254Z,27.62
2022-08-12T10:18:26.542Z,27.50
2022-08-12T10:20:54.317Z,27.41
2022-08-12T10:23:39.317Z,27.46
2022-08-12T10:26:38.186Z,27.74
2022-08-12T10:30:39.036Z,27.57
2022-08-12T10:33:02.248Z,27.38
2022-08-12T10:35:15.294Z,27.27
2022-08-12T10:38:33.460Z,27.44
2022-08-12T10:40:33.516Z,27.48
2022-08-12T10:43:19.918Z,27.49
2022-08-12T10:45:49.534Z,27.90
2022-08-12T10:48:33.625Z,27.99
2022-08-12T10:52:02.730Z,27.73
2022-08-12T10:54:00.404Z,27.52
2022-08-12T10:59:17.917Z,27.55
2022-08-12T11:04:31.478Z,27.48
2022-08-12T11:04:52.680Z,27.70
2022-08-12T11:08:37.230Z,27.86
2022-08-12T11:10:18.949Z,27.39
2022-08-12T11:13:00.655Z,27.30
2022-08-12T11:16:04.044Z,27.33
2022-08-12T11:18:18.703Z,27.92
2022-08-12T11:20:48.262Z,27.98
2022-08-12T11:23:26.061Z,27.92
2022-08-12T11:26:05.927Z,27.96
2022-08-12T11:28:34.420Z,27.58
2022-08-12T11:31:03.129Z,27.55
2022-08-12T11:34:05.705Z,27.71
2022-08-12T11:36:17.457Z,27.78
2022-08-12T11:38:50.500Z,27.68
2022-08-12T11:41:31.380Z,27.59
2022-08-12T11:44:30.760Z,27.63
2022-08-12T11:46:54.578Z,27.48
2022-08-12T11:49:31.719Z,27.76
2022-08-12T11:52:03.481Z,27.84
2022-08-12T11:54:31.506Z,27.81
2022-08-12T11:58:40.522Z,27.91
2022-08-12T12:02:57.657Z,27.71
2022-08-12T12:05:28.419Z,27.72
2022-08-12T12:08:38.516Z,27.89
2022-08-12T12:10:57.736Z,27.60
2022-08-12T12:14:07.500Z,27.82
2022-08-12T12:16:21.663Z,27.79
2022-08-12T12:18:49.190Z,27.72
2022-08-12T12:21:18.840Z,27.68
2022-08-12T12:24:06.634Z,27.82
2022-08-12T12:26:35.473Z,27.64
2022-08-12T12:29:03.366Z,27.90
2022-08-12T12:32:09.367Z,27.76
2022-08-12T12:34:30.423Z,27.85
2022-08-12T12:36:58.059Z,27.95
2022-08-12T12:39:27.728Z,28.00
2022-08-12T12:42:42.800Z,27.91
2022-08-12T12:44:42.064Z,28.14
2022-08-12T12:47:29.027Z,27.94
2022-08-12T12:50:00.102Z,27.93
2022-08-12T12:52:27.204Z,27.84
2022-08-12T12:54:55.741Z,27.91
2022-08-12T12:57:59.467Z,27.89
2022-08-12T13:00:17.428Z,27.83
2022-08-12T13:02:53.688Z,27.83
2022-08-12T13:05:28.047Z,28.03
2022-08-12T13:08:00.757Z,27.98
2022-08-12T13:10:36.994Z,28.10
2022-08-12T13:14:06.885Z,28.11
2022-08-12T13:15:59.421Z,27.96
2022-08-12T13:18:28.764Z,27.93
2022-08-12T13:21:02.969Z,27.95
2022-08-12T13:23:36.814Z,28.09
2022-08-12T13:26:04.965Z,27.94
2022-08-12T13:28:31.810Z,28.00
2022-08-12T13:31:06.528Z,27.91
2022-08-12T13:34:31.829Z,27.98
2022-08-12T13:36:21.835Z,28.05
2022-08-12T13:38:54.615Z,28.24
2022-08-12T13:41:33.474Z,28.12
2022-08-12T13:44:06.677Z,28.26
2022-08-12T13:46:38.791Z,27.98
2022-08-12T13:49:11.520Z,28.12
2022-08-12T13:51:48.306Z,28.12
2022-08-12T13:54:22.267Z,28.11
2022-08-12T13:56:49.995Z,28.14
2022-08-12T13:59:20.388Z,27.95
2022-08-12T14:01:51.886Z,27.72
2022-08-12T14:04:19.131Z,27.92
2022-08-12T14:06:51.367Z,28.01
2022-08-12T14:09:20.037Z,28.07
2022-08-12T14:11:58.851Z,28.06
2022-08-12T14:14:31.525Z,27.93
2022-08-12T14:17:05.503Z,27.90
2022-08-12T14:19:35.694Z,27.98
2022-08-12T14:22:10.320Z,28.07
2022-08-12T14:24:41.032Z,27.96
2022-08-12T14:27:10.127Z,27.98
2022-08-12T14:30:06.252Z,28.02
2022-08-12T14:32:35.349Z,28.12
2022-08-12T14:35:09.405Z,27.96
2022-08-12T14:37:56.444Z,27.85
2022-08-12T14:40:29.925Z,27.88
2022-08-12T14:42:58.286Z,28.02
2022-08-12T14:45:44.389Z,28.26
2022-08-12T14:48:16.207Z,28.01
2022-08-12T14:51:03.139Z,28.20
2022-08-12T14:59:56.945Z,28.08
2022-08-12T15:02:20.895Z,28.21
2022-08-12T15:04:54.715Z,28.16
2022-08-12T15:07:33.167Z,28.03
2022-08-12T15:10:10.827Z,28.12
2022-08-12T15:12:40.767Z,28.07
2022-08-12T15:15:10.266Z,28.14
2022-08-12T15:17:38.637Z,28.21
2022-08-12T15:20:31.790Z,28.20
2022-08-12T15:22:55.619Z,28.23
2022-08-12T15:25:22.718Z,28.17
2022-08-12T15:28:03.780Z,28.14
2022-08-12T15:30:34.100Z,28.05
2022-08-12T15:33:12.426Z,28.13
2022-08-12T15:35:51.981Z,28.22
2022-08-12T15:38:21.232Z,28.16
2022-08-12T15:40:50.089Z,28.01
2022-08-12T15:44:16.253Z,27.99
2022-08-12T15:46:06.333Z,28.02
2022-08-12T15:48:33.955Z,28.00
2022-08-12T15:51:06.424Z,28.12
2022-08-12T15:53:54.861Z,28.03
2022-08-12T15:56:29.030Z,28.19
2022-08-12T15:59:00.379Z,28.12
2022-08-12T16:01:35.141Z,28.10
2022-08-12T16:04:02.019Z,28.08
2022-08-12T16:07:00.585Z,28.01
2022-08-12T16:09:21.307Z,28.09
2022-08-12T16:11:48.770Z,28.05
2022-08-12T16:14:18.379Z,28.21
2022-08-12T16:16:48.489Z,28.02
2022-08-12T16:20:02.719Z,28.04
2022-08-12T16:22:07.138Z,27.98
2022-08-12T16:24:43.589Z,28.08
2022-08-12T16:27:11.047Z,27.97
2022-08-12T16:29:52.655Z,27.92
2022-08-12T16:32:23.137Z,27.89
2022-08-12T16:34:55.801Z,27.88
2022-08-12T16:37:33.088Z,27.86
2022-08-12T16:40:12.950Z,27.83
2022-08-12T16:42:42.159Z,27.86
2022-08-12T16:45:22.959Z,27.89
2022-08-12T16:48:00.594Z,27.69
2022-08-12T16:50:30.897Z,27.58
2022-08-12T16:52:59.862Z,27.53
2022-08-12T16:55:41.808Z,27.57
2022-08-12T16:58:28.028Z,27.55
2022-08-12T17:00:56.131Z,27.41
2022-08-12T17:03:29.162Z,27.47
2022-08-12T17:05:58.313Z,27.28
2022-08-12T17:08:28.942Z,27.31
2022-08-12T17:10:56.380Z,27.19
2022-08-12T17:13:26.204Z,27.26
2022-08-12T17:16:04.679Z,27.27
2022-08-12T17:18:42.524Z,27.25
2022-08-12T17:21:41.178Z,27.22
2022-08-12T17:24:05.759Z,27.25
2022-08-12T17:26:33.790Z,27.09
2022-08-12T17:29:00.490Z,26.96
2022-08-12T17:31:59.776Z,27.01
2022-08-12T17:34:36.389Z,27.09
2022-08-12T17:37:06.294Z,26.85
2022-08-12T17:40:06.650Z,26.81
2022-08-12T17:42:31.182Z,26.63
2022-08-12T17:45:01.929Z,26.50
2022-08-12T17:48:04.922Z,26.46
2022-08-12T17:50:38.728Z,26.35
2022-08-12T17:53:08.190Z,26.11
2022-08-12T17:55:47.489Z,26.11
2022-08-12T17:58:37.097Z,26.12
2022-08-12T18:01:05.946Z,25.84
2022-08-12T18:03:57.504Z,25.93
2022-08-12T18:06:28.017Z,25.67
2022-08-12T18:08:58.864Z,25.55
2022-08-12T18:12:03.748Z,25.47
2022-08-12T18:14:32.743Z,25.63
2022-08-12T18:17:08.343Z,25.49
2022-08-12T18:20:06.468Z,25.28
2022-08-12T18:22:39.434Z,24.92
2022-08-12T18:26:15.906Z,25.09
2022-08-12T18:28:15.607Z,24.78
2022-08-12T18:30:53.322Z,24.68
2022-08-12T18:33:25.054Z,24.50
2022-08-12T18:35:55.631Z,24.39
2022-08-12T18:38:25.263Z,24.29
2022-08-12T18:41:21.333Z,24.28
2022-08-12T18:44:02.521Z,24.05
2022-08-12T18:46:54.452Z,23.79
2022-08-12T18:49:30.761Z,23.62
2022-08-12T18:52:04.872Z,23.45
2022-08-12T18:54:37.470Z,23.08
2022-08-12T18:57:19.441Z,23.20
2022-08-12T19:00:01.712Z,23.22
2022-08-12T19:02:33.950Z,23.40
2022-08-12T19:05:09.961Z,23.59
2022-08-12T19:07:50.049Z,23.80
2022-08-12T19:10:28.576Z,24.10
2022-08-12T19:13:21.107Z,23.88
2022-08-12T19:15:53.357Z,23.73
2022-08-12T19:18:22.134Z,23.75
2022-08-12T19:20:50.593Z,23.88
2022-08-12T19:23:21.297Z,23.61
2022-08-12T19:26:01.134Z,23.59
2022-08-12T19:28:35.573Z,23.61
2022-08-12T19:31:57.822Z,23.61
2022-08-12T19:38:03.715Z,23.60
2022-08-12T19:40:32.743Z,23.64
2022-08-12T19:43:13.286Z,23.49
2022-08-12T19:45:51.449Z,23.26
2022-08-12T19:48:20.211Z,23.38
2022-08-12T19:50:50.649Z,23.62
2022-08-12T19:53:23.966Z,23.62
2022-08-12T19:55:53.093Z,23.42
2022-08-12T19:58:21.178Z,23.16
2022-08-12T20:00:53.256Z,23.33
2022-08-12T20:03:37.880Z,23.38
2022-08-12T20:06:16.029Z,23.56
2022-08-12T20:08:56.752Z,23.70
2022-08-12T20:12:13.982Z,23.64
2022-08-12T20:14:19.846Z,23.87
2022-08-12T20:16:54.296Z,23.64
2022-08-12T20:20:02.729Z,23.71
2022-08-12T20:22:24.583Z,23.53
2022-08-12T20:25:01.260Z,23.68
2022-08-12T20:28:03.075Z,23.68
2022-08-12T20:30:17.777Z,23.70
2022-08-12T20:32:55.996Z,23.53
2022-08-12T20:35:24.426Z,23.67
2022-08-12T20:38:06.812Z,23.54
2022-08-12T20:40:39.127Z,23.70
2022-08-12T20:43:06.588Z,23.47
2022-08-12T20:45:51.231Z,23.50
2022-08-12T20:48:24.185Z,23.32
2022-08-12T20:50:53.895Z,23.19
2022-08-12T20:53:33.195Z,23.03
2022-08-12T20:56:30.964Z,22.91
2022-08-12T20:59:01.162Z,22.67
2022-08-12T21:01:36.618Z,22.70
2022-08-12T21:04:32.640Z,22.62
2022-08-12T21:07:04.664Z,22.38
2022-08-12T21:09:40.622Z,22.01
2022-08-12T21:12:28.108Z,21.98
2022-08-12T21:15:00.774Z,21.68
2022-08-12T21:18:09.420Z,21.96
2022-08-12T21:20:32.685Z,21.71
2022-08-12T21:22:59.459Z,21.60
2022-08-12T21:25:44.526Z,21.80
2022-08-12T21:28:12.549Z,21.91
2022-08-12T21:31:11.007Z,21.57
2022-08-12T21:33:58.688Z,21.66
2022-08-12T21:36:34.973Z,21.66
2022-08-12T21:39:18.814Z,21.47
2022-08-12T21:41:54.913Z,21.33
2022-08-12T21:45:46.408Z,21.37
2022-08-12T21:47:23.031Z,21.31
2022-08-12T21:50:03.728Z,21.11
2022-08-12T21:52:59.410Z,21.27
2022-08-12T21:55:46.793Z,21.21
2022-08-12T21:58:21.165Z,21.06
2022-08-12T22:00:53.114Z,21.31
2022-08-12T22:07:18.786Z,21.36
2022-08-12T22:09:57.333Z,21.14
2022-08-12T22:12:45.648Z,21.36
2022-08-12T22:15:21.462Z,21.53
2022-08-12T22:17:57.622Z,21.98
2022-08-12T22:20:29.729Z,21.93
2022-08-12T22:23:21.719Z,21.96
2022-08-12T22:26:08.927Z,21.86
2022-08-12T22:29:29.978Z,21.68
2022-08-12T22:31:57.977Z,21.93
2022-08-12T22:34:34.372Z,21.61
2022-08-12T22:37:20.196Z,21.65
2022-08-12T22:46:34.996Z,21.77
2022-08-12T22:49:06.552Z,21.90
2022-08-12T22:52:00.025Z,21.65
2022-08-12T22:54:35.867Z,21.79
2022-08-12T22:57:04.645Z,21.65
2022-08-12T22:59:55.171Z,21.79
2022-08-12T23:02:29.027Z,21.62
2022-08-12T23:05:06.026Z,21.87
2022-08-12T23:08:04.371Z,21.55
2022-08-12T23:10:31.267Z,21.62
2022-08-12T23:13:18.591Z,21.48
2022-08-12T23:15:47.814Z,21.58
2022-08-12T23:18:23.635Z,21.58
2022-08-12T23:21:07.685Z,21.41
2022-08-12T23:24:09.300Z,21.35
2022-08-12T23:26:57.238Z,21.38
2022-08-12T23:29:42.907Z,21.73
2022-08-12T23:32:10.913Z,22.06
2022-08-12T23:34:37.732Z,21.78
2022-08-12T23:37:08.494Z,22.28
2022-08-12T23:40:14.951Z,21.74
2022-08-12T23:42:41.422Z,21.39
2022-08-12T23:45:31.509Z,21.13
2022-08-12T23:48:07.328Z,20.76
2022-08-12T23:50:35.082Z,20.82
2022-08-12T23:53:22.420Z,20.74
2022-08-12T23:55:49.957Z,20.72
2022-08-12T23:58:26.188Z,20.47
